Time;durP1;ratioP1;P1;durP2;ratioP2;P2;SDS_P1;SDS_P2;PMS_P1;PMS_P2;Temp;Humidity;BMP_temperature;BMP_pressure;BME280_temperature;BME280_humidity;BME280_pressure;Samples;Min_cycle;Max_cycle;Signal;HPM_P1;HPM_P2
2022/12/20 00:02:04;;;;;;;28.17;17.90;;;9.80;77.90;;;;;;21079503;28;20138;-61
2022/12/20 00:12:06;;;;;;;31.17;19.13;;;9.80;77.80;;;;;;21078035;28;20136;-60
2022/12/20 00:22:08;;;;;;;33.35;21.15;;;9.70;77.70;;;;;;21059430;28;20044;-61
2022/12/20 00:32:10;;;;;;;27.23;18.25;;;9.60;77.90;;;;;;21076940;28;20058;-60
2022/12/20 00:42:11;;;;;;;29.85;19.35;;;9.50;78.20;;;;;;21076053;28;20139;-62
2022/12/20 00:52:13;;;;;;;31.48;19.42;;;9.50;78.10;;;;;;21076171;28;20047;-60
2022/12/20 01:02:15;;;;;;;27.75;18.92;;;9.40;78.30;;;;;;21076505;28;20122;-62
2022/12/20 01:12:17;;;;;;;27.15;17.90;;;9.40;78.40;;;;;;21091017;28;20480;-61
2022/12/20 01:22:19;;;;;;;27.08;19.52;;;9.30;78.30;;;;;;21089220;28;20044;-61
2022/12/20 01:32:21;;;;;;;25.42;17.38;;;9.20;78.40;;;;;;21089751;28;20044;-60
2022/12/20 01:42:23;;;;;;;28.80;18.73;;;9.10;78.80;;;;;;21087627;28;20422;-60
2022/12/20 01:52:33;;;;;;;28.42;18.20;;;9.10;78.90;;;;;;21086596;28;20068;-60
2022/12/20 02:02:39;;;;;;;25.98;17.00;;;9.10;78.90;;;;;;21086928;28;20044;-61
2022/12/20 02:12:43;;;;;;;30.88;18.20;;;9.00;78.70;;;;;;21086224;28;20048;-60
2022/12/20 02:23:13;;;;;;;25.75;17.98;;;9.00;78.80;;;;;;21084622;28;20068;-61
2022/12/20 02:33:19;;;;;;;26.17;17.55;;;8.80;79.10;;;;;;21084436;28;20538;-60
2022/12/20 02:54:01;;;;;;;30.15;18.13;;;8.90;79.40;;;;;;21082867;28;20079;-60
2022/12/20 03:04:20;;;;;;;29.15;17.98;;;8.80;79.30;;;;;;21081813;28;20044;-60
2022/12/20 03:14:27;;;;;;;28.38;18.48;;;8.80;79.40;;;;;;21080735;28;20053;-59
2022/12/20 03:24:36;;;;;;;29.13;17.70;;;8.70;79.50;;;;;;21080829;28;20060;-61
2022/12/20 03:34:39;;;;;;;29.55;17.30;;;8.70;79.50;;;;;;21080036;28;20362;-59
2022/12/20 03:44:41;;;;;;;27.60;17.20;;;8.70;79.60;;;;;;21079289;28;20048;-60
2022/12/20 03:54:45;;;;;;;27.83;17.92;;;8.70;79.40;;;;;;21078687;28;20404;-60
2022/12/20 04:04:48;;;;;;;26.38;17.63;;;8.60;79.50;;;;;;21078361;28;20054;-60
2022/12/20 04:14:51;;;;;;;24.23;16.75;;;8.70;79.50;;;;;;21078195;28;20090;-60
2022/12/20 04:24:57;;;;;;;25.48;15.73;;;8.70;79.50;;;;;;21079125;28;20074;-60
2022/12/20 04:35:00;;;;;;;23.88;16.92;;;8.70;79.00;;;;;;21077231;28;20130;-61
2022/12/20 04:45:04;;;;;;;27.73;17.80;;;8.50;79.20;;;;;;21089951;28;20490;-59
2022/12/20 04:55:21;;;;;;;27.75;16.90;;;8.50;79.40;;;;;;21092239;28;20052;-60
2022/12/20 05:05:24;;;;;;;26.38;17.20;;;8.40;79.60;;;;;;21091079;28;20056;-60
2022/12/20 05:15:28;;;;;;;26.92;17.23;;;8.40;79.70;;;;;;21091329;28;20093;-60
2022/12/20 05:26:16;;;;;;;25.15;17.27;;;8.40;79.60;;;;;;21090442;28;20062;-61
2022/12/20 05:36:11;;;;;;;28.08;17.65;;;8.40;79.70;;;;;;21088262;28;20044;-62
2022/12/20 05:46:14;;;;;;;29.92;18.27;;;8.70;79.70;;;;;;21087567;28;20135;-60
2022/12/20 05:56:17;;;;;;;28.90;17.48;;;8.80;79.60;;;;;;21086251;28;20107;-60
2022/12/20 06:06:18;;;;;;;25.10;18.10;;;8.90;79.50;;;;;;21085888;28;20488;-60
2022/12/20 06:16:22;;;;;;;30.05;18.42;;;9.00;79.40;;;;;;21086969;28;20429;-60
2022/12/20 06:26:23;;;;;;;29.02;18.20;;;9.00;79.60;;;;;;21086038;28;20047;-60
2022/12/20 06:36:25;;;;;;;24.67;16.73;;;9.10;79.80;;;;;;21084120;28;20047;-62
2022/12/20 06:46:27;;;;;;;25.20;17.33;;;9.20;79.70;;;;;;21084002;28;20503;-61
2022/12/20 06:56:29;;;;;;;29.67;18.55;;;9.10;79.70;;;;;;21045724;28;20501;-61
2022/12/20 07:06:31;;;;;;;26.58;18.10;;;9.10;79.70;;;;;;20996509;28;20048;-60
2022/12/20 07:16:33;;;;;;;50.95;34.70;;;9.10;79.70;;;;;;20997841;28;20114;-60
2022/12/20 07:26:35;;;;;;;41.80;25.52;;;9.00;79.30;;;;;;20996738;28;20049;-61
2022/12/20 07:36:36;;;;;;;28.25;18.60;;;8.80;78.80;;;;;;20996167;28;20056;-61
2022/12/20 07:46:38;;;;;;;28.55;17.77;;;8.60;79.00;;;;;;20995941;28;20493;-61
2022/12/20 07:56:46;;;;;;;27.98;16.92;;;8.70;79.00;;;;;;21033720;28;20056;-61
2022/12/20 08:06:49;;;;;;;30.42;17.52;;;8.70;79.20;;;;;;21059729;28;20135;-62
2022/12/20 08:16:50;;;;;;;34.03;20.65;;;8.80;78.90;;;;;;21088396;28;20055;-61
2022/12/20 08:26:52;;;;;;;32.65;17.48;;;8.80;78.80;;;;;;21094486;28;20048;-60
2022/12/20 08:36:53;;;;;;;39.25;23.23;;;8.90;78.70;;;;;;21093809;28;20050;-58
2022/12/20 08:46:54;;;;;;;33.78;21.02;;;9.20;78.70;;;;;;21074386;28;20090;-58
2022/12/20 08:56:56;;;;;;;43.65;19.13;;;9.30;78.50;;;;;;21091591;28;20040;-59
2022/12/20 09:06:57;;;;;;;29.88;16.85;;;9.50;78.10;;;;;;21090881;28;20058;-60
2022/12/20 09:16:59;;;;;;;23.35;14.75;;;9.70;77.40;;;;;;21089689;28;20127;-61
2022/12/20 09:27:00;;;;;;;19.65;13.02;;;10.00;76.70;;;;;;21088582;28;20458;-61
2022/12/20 09:37:02;;;;;;;18.20;13.32;;;10.20;75.70;;;;;;21088041;28;20040;-62
2022/12/20 09:47:06;;;;;;;19.00;13.18;;;10.30;75.10;;;;;;21087788;28;20111;-61
2022/12/20 09:57:29;;;;;;;20.27;11.52;;;10.40;74.10;;;;;;21086835;28;20390;-61
2022/12/20 10:07:54;;;;;;;23.35;14.82;;;10.60;73.50;;;;;;21085990;28;20135;-60
2022/12/20 10:18:26;;;;;;;22.87;12.40;;;10.60;75.10;;;;;;21086485;28;20132;-58
2022/12/20 10:28:33;;;;;;;17.15;11.32;;;12.30;74.20;;;;;;21084636;28;20054;-57
2022/12/20 10:38:50;;;;;;;18.38;10.32;;;13.20;70.30;;;;;;21119710;28;20051;-58
2022/12/20 10:48:51;;;;;;;19.17;12.00;;;13.50;67.40;;;;;;21167928;28;20403;-61
2022/12/20 10:58:57;;;;;;;20.10;13.80;;;13.00;68.20;;;;;;21167006;28;20484;-64
2022/12/20 11:09:17;;;;;;;;;;;11.50;74.10;;;;;;21167021;28;20059;-60
2022/12/20 11:19:25;;;;;;;25.75;14.73;;;10.90;76.60;;;;;;21165506;28;19927;-60
2022/12/20 11:29:49;;;;;;;22.73;13.00;;;10.70;78.90;;;;;;21164331;28;20048;-61
2022/12/20 11:39:57;;;;;;;11.63;8.20;;;10.80;79.20;;;;;;21166500;28;20055;-58
2022/12/20 11:50:53;;;;;;;13.75;8.40;;;11.30;78.40;;;;;;21162874;28;20048;-59
2022/12/20 12:01:00;;;;;;;24.52;12.85;;;13.20;71.80;;;;;;20739219;28;20064;-59
2022/12/20 12:11:20;;;;;;;17.77;11.77;;;12.10;75.20;;;;;;20739701;28;20101;-59
2022/12/20 12:21:27;;;;;;;17.55;11.07;;;11.50;77.10;;;;;;20724596;28;20061;-59
2022/12/20 12:32:13;;;;;;;19.50;12.38;;;11.20;78.00;;;;;;20922694;28;20052;-60
2022/12/20 12:42:40;;;;;;;21.88;12.23;;;11.10;78.90;;;;;;20797406;28;20089;-64
2022/12/20 12:52:48;;;;;;;18.98;13.05;;;11.10;78.70;;;;;;20819310;28;20133;-61
2022/12/20 13:02:50;;;;;;;22.13;12.20;;;11.00;78.80;;;;;;20826562;28;20495;-59
2022/12/20 13:12:56;;;;;;;19.02;12.27;;;11.00;78.90;;;;;;20911135;28;20497;-60
2022/12/20 13:23:10;;;;;;;17.67;11.90;;;11.10;78.60;;;;;;21090613;28;20385;-60
2022/12/20 13:33:37;;;;;;;22.63;13.10;;;11.20;78.80;;;;;;21089611;28;20055;-60
2022/12/20 13:43:44;;;;;;;23.90;12.98;;;11.10;79.70;;;;;;21087875;28;20059;-61
2022/12/20 13:54:17;;;;;;;20.73;14.13;;;11.10;80.30;;;;;;21101418;28;20055;-59
2022/12/20 14:04:19;;;;;;;19.88;13.75;;;11.00;81.10;;;;;;21163938;28;20054;-60
2022/12/20 14:14:21;;;;;;;26.80;15.60;;;11.00;81.60;;;;;;21170295;28;20076;-61
2022/12/20 14:24:23;;;;;;;25.42;15.55;;;11.00;81.80;;;;;;21169715;28;20051;-60
2022/12/20 14:34:29;;;;;;;23.63;15.88;;;11.10;82.20;;;;;;21169014;28;20079;-60
2022/12/20 14:44:33;;;;;;;23.08;14.65;;;11.10;82.80;;;;;;21167702;28;20090;-59
2022/12/20 14:54:41;;;;;;;22.20;14.88;;;11.10;82.90;;;;;;21167697;28;20047;-60
2022/12/20 15:04:42;;;;;;;23.52;15.90;;;11.10;83.00;;;;;;21166403;28;20044;-60
2022/12/20 15:14:44;;;;;;;21.50;15.20;;;11.10;83.10;;;;;;21166093;28;20073;-60
2022/12/20 15:24:46;;;;;;;28.25;16.77;;;11.20;83.80;;;;;;21164655;28;20063;-60
2022/12/20 15:34:47;;;;;;;29.13;20.58;;;11.20;84.30;;;;;;21165264;28;20075;-59
2022/12/20 15:44:50;;;;;;;45.78;30.45;;;11.20;84.50;;;;;;21165194;28;20047;-59
2022/12/20 15:54:51;;;;;;;31.88;21.05;;;11.30;84.90;;;;;;21163269;28;20094;-60
2022/12/20 16:04:54;;;;;;;33.15;22.30;;;11.30;85.10;;;;;;21162530;28;20047;-57
2022/12/20 16:14:55;;;;;;;29.38;22.25;;;11.40;85.30;;;;;;21161945;28;20043;-60
2022/12/20 16:24:57;;;;;;;38.10;24.55;;;11.50;85.40;;;;;;21166386;28;20083;-59
2022/12/20 16:34:59;;;;;;;15.88;10.93;;;11.50;85.50;;;;;;21185673;28;20050;-56
2022/12/20 16:45:00;;;;;;;39.22;24.48;;;11.50;85.60;;;;;;21177924;28;20052;-60
2022/12/20 16:55:02;;;;;;;27.70;20.50;;;12.20;83.00;;;;;;21176812;28;20054;-58
2022/12/20 17:05:06;;;;;;;29.45;20.50;;;11.70;84.70;;;;;;21176636;28;20058;-58
2022/12/20 17:15:16;;;;;;;40.20;30.23;;;11.40;85.00;;;;;;21175827;28;20055;-60
2022/12/20 17:25:31;;;;;;;34.80;22.83;;;11.30;85.80;;;;;;21175201;28;20047;-59
2022/12/20 17:35:33;;;;;;;30.37;20.60;;;11.30;86.00;;;;;;21173358;28;20051;-59
2022/12/20 17:45:35;;;;;;;34.78;24.92;;;11.30;86.00;;;;;;21173311;28;20399;-59
2022/12/20 17:55:36;;;;;;;37.38;24.25;;;11.30;86.10;;;;;;21172164;28;20071;-59
2022/12/20 18:05:39;;;;;;;29.95;22.33;;;11.50;86.20;;;;;;21171146;28;20479;-59
2022/12/20 18:15:41;;;;;;;37.22;23.35;;;11.50;86.30;;;;;;21171279;28;20427;-59
2022/12/20 18:25:43;;;;;;;33.83;24.02;;;11.50;86.30;;;;;;21170357;28;20415;-58
2022/12/20 18:35:45;;;;;;;30.33;21.98;;;11.50;86.50;;;;;;21168770;28;20047;-59
2022/12/20 18:45:46;;;;;;;30.45;22.95;;;11.50;86.50;;;;;;21167387;28;20544;-59
2022/12/20 18:55:48;;;;;;;28.50;20.55;;;11.60;86.50;;;;;;21166585;28;20069;-57
2022/12/20 19:05:54;;;;;;;27.25;19.02;;;11.40;86.00;;;;;;21166253;28;20105;-57
2022/12/20 19:16:04;;;;;;;29.85;20.92;;;11.40;86.20;;;;;;21165822;28;20056;-59
2022/12/20 19:26:07;;;;;;;30.65;20.92;;;11.40;86.20;;;;;;21165341;28;20407;-59
2022/12/20 19:36:21;;;;;;;29.48;19.83;;;11.40;85.70;;;;;;21164092;28;20433;-60
2022/12/20 19:46:24;;;;;;;26.48;20.13;;;11.40;85.80;;;;;;21163743;28;20560;-58
2022/12/20 19:56:32;;;;;;;28.90;19.50;;;11.30;85.80;;;;;;21163388;28;20051;-59
2022/12/20 20:06:33;;;;;;;31.98;21.30;;;11.30;85.80;;;;;;21161733;28;20123;-58
2022/12/20 20:16:36;;;;;;;34.50;21.50;;;11.30;85.80;;;;;;21190222;28;20090;-58
2022/12/20 20:26:38;;;;;;;37.03;24.77;;;11.30;85.50;;;;;;21189652;28;20078;-57
2022/12/20 20:36:39;;;;;;;31.25;21.98;;;11.30;85.70;;;;;;21189018;28;20476;-57
2022/12/20 20:46:42;;;;;;;32.05;21.65;;;11.40;85.70;;;;;;21188666;28;20120;-58
2022/12/20 20:56:44;;;;;;;37.20;22.67;;;11.40;85.70;;;;;;21189273;28;20051;-57
2022/12/20 21:06:46;;;;;;;32.78;19.73;;;11.40;85.70;;;;;;21189721;28;20048;-57
2022/12/20 21:16:47;;;;;;;33.75;20.75;;;11.40;85.70;;;;;;21188487;28;20096;-57
2022/12/20 21:26:52;;;;;;;36.53;21.27;;;11.20;85.80;;;;;;21175269;28;20101;-59
2022/12/20 21:36:55;;;;;;;34.30;22.92;;;11.30;85.90;;;;;;21173460;28;20096;-58
2022/12/20 21:46:58;;;;;;;41.67;23.70;;;11.40;85.80;;;;;;21173655;28;20545;-58
2022/12/20 21:57:00;;;;;;;36.00;21.33;;;11.30;86.00;;;;;;21172846;28;20044;-58
2022/12/20 22:07:03;;;;;;;40.15;22.38;;;11.40;85.90;;;;;;21172163;28;20055;-59
2022/12/20 22:17:06;;;;;;;37.55;22.33;;;11.40;85.90;;;;;;21170565;28;20047;-61
2022/12/20 22:27:11;;;;;;;40.40;23.63;;;11.40;85.90;;;;;;21169800;28;20055;-58
2022/12/20 22:37:14;;;;;;;43.40;24.20;;;11.40;85.80;;;;;;21168506;28;20048;-57
2022/12/20 22:47:16;;;;;;;45.22;23.67;;;11.30;85.90;;;;;;21167610;28;20044;-58
2022/12/20 22:57:18;;;;;;;44.50;23.90;;;11.30;85.80;;;;;;21166725;28;20047;-57
2022/12/20 23:07:20;;;;;;;48.35;25.58;;;11.30;85.80;;;;;;21166832;28;20047;-58
2022/12/20 23:17:22;;;;;;;71.72;28.65;;;11.30;85.70;;;;;;21166569;28;20104;-59
2022/12/20 23:27:25;;;;;;;66.28;28.95;;;11.20;85.60;;;;;;21164985;28;20047;-57
2022/12/20 23:37:30;;;;;;;53.13;28.65;;;10.90;85.80;;;;;;21164540;28;20081;-59
2022/12/20 23:47:33;;;;;;;88.68;30.17;;;10.90;85.90;;;;;;21164394;28;20181;-58
2022/12/20 23:57:34;;;;;;;116.97;27.05;;;10.70;85.90;;;;;;21163545;28;20087;-58
